Time;durP1;ratioP1;P1;durP2;ratioP2;P2;SDS_P1;SDS_P2;PMS_P1;PMS_P2;Temp;Humidity;BMP_temperature;BMP_pressure;BME280_temperature;BME280_humidity;BME280_pressure;Samples;Min_cycle;Max_cycle;Signal;HPM_P1;HPM_P2
2023/12/04 00:01:36;;;;;;;29.30;25.00;;;;;;;;;;4992329;28;20236;-85
2023/12/04 00:04:01;;;;;;;31.83;24.70;;;;;;;;;;4957301;28;20221;-84
2023/12/04 00:06:29;;;;;;;31.60;24.07;;;;;;;;;;4960436;28;20248;-85
2023/12/04 00:08:59;;;;;;;29.47;25.00;;;;;;;;;;4995934;28;20365;-84
2023/12/04 00:11:27;;;;;;;30.10;25.93;;;;;;;;;;4983543;28;20267;-84
2023/12/04 00:13:55;;;;;;;28.93;23.67;;;;;;;;;;4952755;28;20317;-85
2023/12/04 00:16:20;;;;;;;32.47;25.23;;;;;;;;;;4973361;28;20221;-86
2023/12/04 00:18:48;;;;;;;25.93;22.53;;;;;;;;;;4999094;28;20209;-86
2023/12/04 00:21:14;;;;;;;31.30;24.03;;;;;;;;;;5008780;28;20277;-87
2023/12/04 00:23:39;;;;;;;35.37;24.83;;;;;;;;;;4974771;28;20221;-86
2023/12/04 00:26:05;;;;;;;29.13;24.47;;;;;;;;;;4986107;28;20218;-85
2023/12/04 00:28:37;;;;;;;27.30;22.70;;;;;;;;;;4971035;28;20265;-86
2023/12/04 00:31:03;;;;;;;26.53;22.63;;;;;;;;;;4985860;28;20218;-86
2023/12/04 00:33:33;;;;;;;31.73;24.77;;;;;;;;;;4955992;28;20224;-86
2023/12/04 00:35:59;;;;;;;27.00;23.03;;;;;;;;;;4991528;28;20229;-88
2023/12/04 00:38:29;;;;;;;25.07;22.27;;;;;;;;;;4983934;28;20205;-87
2023/12/04 00:40:57;;;;;;;26.60;21.97;;;;;;;;;;4973142;28;20225;-85
2023/12/04 00:43:27;;;;;;;26.07;21.23;;;;;;;;;;4995069;28;20222;-85
2023/12/04 00:45:53;;;;;;;26.70;22.23;;;;;;;;;;4973646;28;20229;-85
2023/12/04 00:48:18;;;;;;;26.20;22.60;;;;;;;;;;4958719;28;20687;-88
2023/12/04 00:50:44;;;;;;;29.40;22.83;;;;;;;;;;4983577;28;20230;-86
2023/12/04 00:53:09;;;;;;;27.53;22.33;;;;;;;;;;4977574;28;20228;-86
2023/12/04 00:55:35;;;;;;;26.20;21.40;;;;;;;;;;4975213;28;20245;-86
2023/12/04 00:58:05;;;;;;;27.20;22.63;;;;;;;;;;4984625;28;20220;-85
2023/12/04 01:00:31;;;;;;;27.00;22.40;;;;;;;;;;4957951;28;20226;-85
2023/12/04 01:02:58;;;;;;;27.70;21.77;;;;;;;;;;4975999;28;20217;-86
2023/12/04 01:05:24;;;;;;;25.53;22.73;;;;;;;;;;4943971;28;20229;-86
2023/12/04 01:07:52;;;;;;;24.17;20.63;;;;;;;;;;4998584;28;20225;-86
2023/12/04 01:10:18;;;;;;;25.27;21.53;;;;;;;;;;4975138;28;20758;-86
2023/12/04 01:12:45;;;;;;;26.83;21.23;;;;;;;;;;4974984;28;20240;-86
2023/12/04 01:15:11;;;;;;;28.60;22.67;;;;;;;;;;4995666;28;20300;-87
2023/12/04 01:17:37;;;;;;;26.60;20.63;;;;;;;;;;4969302;28;20293;-85
2023/12/04 01:20:05;;;;;;;24.03;20.83;;;;;;;;;;4992969;28;20229;-85
2023/12/04 01:22:35;;;;;;;24.97;20.73;;;;;;;;;;4974910;28;20312;-86
2023/12/04 01:25:03;;;;;;;24.27;20.63;;;;;;;;;;4959787;28;20226;-85
2023/12/04 01:27:31;;;;;;;24.43;20.30;;;;;;;;;;4968892;28;20241;-86
2023/12/04 01:29:57;;;;;;;25.57;20.07;;;;;;;;;;4975083;28;20225;-85
2023/12/04 01:32:26;;;;;;;25.17;20.37;;;;;;;;;;4998677;28;20244;-84
2023/12/04 01:34:51;;;;;;;23.07;20.53;;;;;;;;;;4983171;28;20228;-87
2023/12/04 01:37:19;;;;;;;25.00;19.47;;;;;;;;;;4952746;28;20224;-86
2023/12/04 01:39:47;;;;;;;23.67;20.70;;;;;;;;;;4990747;28;20229;-88
2023/12/04 01:42:15;;;;;;;22.37;19.97;;;;;;;;;;4964738;28;20205;-86
2023/12/04 01:44:40;;;;;;;21.30;19.07;;;;;;;;;;4968624;28;20221;-86
2023/12/04 01:47:07;;;;;;;22.47;18.67;;;;;;;;;;4981102;28;20276;-85
2023/12/04 01:49:32;;;;;;;21.70;18.73;;;;;;;;;;4965365;28;20682;-85
2023/12/04 01:51:58;;;;;;;24.40;19.93;;;;;;;;;;4946181;28;20230;-86
2023/12/04 01:54:23;;;;;;;22.03;18.50;;;;;;;;;;4962919;28;20675;-86
2023/12/04 01:56:51;;;;;;;21.10;18.90;;;;;;;;;;4970387;28;20233;-87
2023/12/04 01:59:17;;;;;;;19.63;17.50;;;;;;;;;;4974592;28;20221;-85
2023/12/04 02:01:47;;;;;;;21.37;18.27;;;;;;;;;;4965515;28;20263;-86
2023/12/04 02:04:19;;;;;;;19.53;17.43;;;;;;;;;;4964650;28;20212;-85
2023/12/04 02:06:47;;;;;;;20.57;17.27;;;;;;;;;;4963644;28;20348;-86
2023/12/04 02:09:16;;;;;;;19.67;17.67;;;;;;;;;;4961532;28;20205;-85
2023/12/04 02:11:41;;;;;;;21.33;19.10;;;;;;;;;;4968849;28;20225;-87
2023/12/04 02:14:07;;;;;;;19.13;17.13;;;;;;;;;;4969646;28;20229;-86
2023/12/04 02:16:40;;;;;;;20.33;17.77;;;;;;;;;;4964176;28;20209;-86
2023/12/04 02:19:11;;;;;;;20.67;17.00;;;;;;;;;;4966307;28;20240;-87
2023/12/04 02:21:39;;;;;;;19.87;17.37;;;;;;;;;;4962204;28;20222;-89
2023/12/04 02:24:09;;;;;;;18.73;16.83;;;;;;;;;;4979369;28;20217;-85
2023/12/04 02:26:54;;;;;;;19.70;16.57;;;;;;;;;;4980939;28;20273;-88
2023/12/04 02:29:30;;;;;;;19.83;16.00;;;;;;;;;;4973104;28;20225;-86
2023/12/04 02:31:56;;;;;;;18.33;16.37;;;;;;;;;;4980606;28;20231;-86
2023/12/04 02:34:24;;;;;;;19.73;16.03;;;;;;;;;;4976514;28;20245;-85
2023/12/04 02:36:50;;;;;;;21.17;17.00;;;;;;;;;;4951091;28;20220;-86
2023/12/04 02:39:18;;;;;;;18.00;15.70;;;;;;;;;;4953667;28;20237;-85
2023/12/04 02:41:44;;;;;;;17.17;15.37;;;;;;;;;;4912160;28;20222;-88
2023/12/04 02:44:10;;;;;;;19.60;15.67;;;;;;;;;;4988289;28;20217;-86
2023/12/04 02:46:35;;;;;;;17.83;15.93;;;;;;;;;;4956675;28;20233;-86
2023/12/04 02:49:03;;;;;;;17.67;14.93;;;;;;;;;;4962113;28;20265;-86
2023/12/04 02:51:31;;;;;;;18.17;15.93;;;;;;;;;;4946189;28;20725;-85
2023/12/04 02:53:56;;;;;;;16.83;15.07;;;;;;;;;;4962172;28;20260;-85
2023/12/04 02:56:24;;;;;;;17.47;15.10;;;;;;;;;;4968877;28;20627;-86
2023/12/04 02:58:50;;;;;;;14.97;13.47;;;;;;;;;;4961809;28;20304;-86
2023/12/04 03:01:17;;;;;;;18.63;15.30;;;;;;;;;;4967494;28;20229;-86
2023/12/04 03:03:43;;;;;;;16.80;15.07;;;;;;;;;;4961568;28;20293;-87
2023/12/04 03:06:11;;;;;;;17.50;15.00;;;;;;;;;;4975836;28;20670;-84
2023/12/04 03:08:36;;;;;;;15.90;14.20;;;;;;;;;;4961360;28;20638;-87
2023/12/04 03:11:03;;;;;;;15.40;13.80;;;;;;;;;;4977329;28;20217;-88
2023/12/04 03:13:32;;;;;;;16.20;14.13;;;;;;;;;;4976956;28;20302;-87
2023/12/04 03:15:57;;;;;;;17.10;14.00;;;;;;;;;;4980550;28;20270;-86
2023/12/04 03:18:25;;;;;;;16.57;14.60;;;;;;;;;;4985356;28;20300;-86
2023/12/04 03:20:53;;;;;;;14.93;13.33;;;;;;;;;;4979196;28;20214;-86
2023/12/04 03:23:19;;;;;;;18.40;14.93;;;;;;;;;;4934396;28;20674;-86
2023/12/04 03:25:45;;;;;;;16.20;14.20;;;;;;;;;;4985240;28;20233;-85
2023/12/04 03:28:15;;;;;;;16.70;14.93;;;;;;;;;;5007493;28;20233;-87
2023/12/04 03:30:45;;;;;;;16.07;13.90;;;;;;;;;;4980709;28;20220;-88
2023/12/04 03:33:11;;;;;;;15.60;13.93;;;;;;;;;;4983406;28;20287;-89
2023/12/04 03:35:36;;;;;;;16.67;14.93;;;;;;;;;;5012026;23;20219;-79
2023/12/04 03:38:04;;;;;;;16.93;15.23;;;;;;;;;;5023934;28;20215;-79
2023/12/04 03:40:29;;;;;;;18.07;15.20;;;;;;;;;;5035572;28;20223;-79
2023/12/04 03:42:55;;;;;;;16.20;14.50;;;;;;;;;;5046941;28;20228;-78
2023/12/04 03:45:20;;;;;;;16.27;14.60;;;;;;;;;;5036612;28;20231;-79
2023/12/04 03:47:48;;;;;;;15.80;13.53;;;;;;;;;;5020886;28;20279;-79
2023/12/04 03:50:15;;;;;;;16.47;14.37;;;;;;;;;;5026134;28;20274;-79
2023/12/04 03:52:42;;;;;;;15.60;14.07;;;;;;;;;;5025383;28;20288;-79
2023/12/04 03:55:10;;;;;;;15.60;13.80;;;;;;;;;;5022193;28;20211;-78
2023/12/04 03:57:38;;;;;;;15.10;13.73;;;;;;;;;;5059628;28;20813;-77
2023/12/04 04:03:51;;;;;;;14.00;12.60;;;;;;;;;;5042582;28;20251;-79
2023/12/04 04:06:17;;;;;;;14.17;12.70;;;;;;;;;;5015761;28;20223;-78
2023/12/04 04:08:42;;;;;;;15.30;13.70;;;;;;;;;;5044346;23;20230;-85
2023/12/04 04:11:08;;;;;;;15.87;14.27;;;;;;;;;;4942120;28;20571;-83
2023/12/04 04:13:34;;;;;;;15.70;14.03;;;;;;;;;;4944871;29;20314;-86
2023/12/04 04:16:00;;;;;;;16.47;14.77;;;;;;;;;;4930582;29;20274;-86
2023/12/04 04:18:25;;;;;;;15.10;13.53;;;;;;;;;;4955801;28;20237;-87
2023/12/04 04:20:54;;;;;;;14.33;12.93;;;;;;;;;;4928034;28;20237;-85
2023/12/04 04:23:20;;;;;;;15.37;13.77;;;;;;;;;;4946154;28;20608;-86
2023/12/04 04:25:45;;;;;;;17.20;14.70;;;;;;;;;;4960069;28;20369;-87
2023/12/04 04:28:11;;;;;;;17.60;15.80;;;;;;;;;;4977225;28;20465;-90
2023/12/04 04:30:40;;;;;;;15.87;14.27;;;;;;;;;;4953222;28;20226;-87
2023/12/04 04:33:05;;;;;;;15.37;13.80;;;;;;;;;;4962936;28;20241;-86
2023/12/04 04:35:31;;;;;;;15.50;13.90;;;;;;;;;;4955981;28;20226;-85
2023/12/04 04:37:57;;;;;;;17.47;14.30;;;;;;;;;;4950629;28;20255;-87
2023/12/04 04:40:23;;;;;;;15.90;13.90;;;;;;;;;;4975979;28;20237;-85
2023/12/04 04:42:48;;;;;;;15.60;13.90;;;;;;;;;;4979754;28;20225;-85
2023/12/04 04:45:17;;;;;;;14.77;13.23;;;;;;;;;;4957386;28;20580;-85
2023/12/04 04:47:42;;;;;;;14.53;11.43;;;;;;;;;;4937069;28;20216;-85
2023/12/04 04:50:08;;;;;;;13.73;12.43;;;;;;;;;;4972515;28;20230;-88
2023/12/04 04:52:34;;;;;;;13.47;12.10;;;;;;;;;;4954174;28;20670;-86
2023/12/04 04:55:08;;;;;;;14.37;12.87;;;;;;;;;;4945651;28;20218;-88
2023/12/04 04:57:38;;;;;;;13.77;11.77;;;;;;;;;;4978421;28;20229;-85
2023/12/04 05:00:04;;;;;;;14.43;13.00;;;;;;;;;;4945331;28;20222;-88
2023/12/04 05:02:31;;;;;;;13.80;12.40;;;;;;;;;;4953387;28;20244;-87
2023/12/04 05:04:57;;;;;;;12.50;11.07;;;;;;;;;;4970572;28;20566;-85
2023/12/04 05:07:25;;;;;;;13.37;11.97;;;;;;;;;;4951058;28;20287;-87
2023/12/04 05:09:50;;;;;;;13.07;11.77;;;;;;;;;;4952729;28;20216;-86
2023/12/04 05:12:16;;;;;;;12.90;11.60;;;;;;;;;;4946569;28;20433;-85
2023/12/04 05:14:46;;;;;;;14.03;11.80;;;;;;;;;;4980448;28;20218;-86
2023/12/04 05:17:14;;;;;;;13.43;11.63;;;;;;;;;;4969674;28;20227;-86
2023/12/04 05:19:40;;;;;;;14.87;12.63;;;;;;;;;;4936028;29;20217;-85
2023/12/04 05:22:09;;;;;;;14.00;12.53;;;;;;;;;;4948973;28;20222;-86
2023/12/04 05:24:35;;;;;;;12.67;11.37;;;;;;;;;;4980316;28;20221;-86
2023/12/04 05:27:04;;;;;;;11.97;10.77;;;;;;;;;;4977105;28;20236;-86
2023/12/04 05:29:29;;;;;;;13.60;12.30;;;;;;;;;;4966159;28;20230;-86
2023/12/04 05:31:58;;;;;;;13.60;12.20;;;;;;;;;;4977508;28;20278;-86
2023/12/04 05:34:24;;;;;;;13.07;11.77;;;;;;;;;;4949981;28;20234;-86
2023/12/04 05:36:49;;;;;;;12.67;11.37;;;;;;;;;;4967191;28;20237;-86
2023/12/04 05:39:19;;;;;;;13.10;10.83;;;;;;;;;;4956899;28;20224;-86
2023/12/04 05:41:45;;;;;;;12.27;11.10;;;;;;;;;;4954702;29;20723;-86
2023/12/04 05:44:11;;;;;;;14.30;12.90;;;;;;;;;;4964436;28;20219;-87
2023/12/04 05:46:36;;;;;;;12.93;11.57;;;;;;;;;;4950819;28;20258;-86
2023/12/04 05:49:02;;;;;;;11.90;10.80;;;;;;;;;;4940789;28;20269;-86
2023/12/04 05:51:27;;;;;;;11.33;10.23;;;;;;;;;;4966424;28;20233;-86
2023/12/04 05:53:53;;;;;;;11.63;10.23;;;;;;;;;;4930840;28;20230;-85
2023/12/04 05:56:19;;;;;;;12.50;11.20;;;;;;;;;;4955897;28;20241;-88
2023/12/04 05:58:48;;;;;;;11.33;10.13;;;;;;;;;;4962818;28;20223;-86
2023/12/04 06:01:21;;;;;;;11.90;10.57;;;;;;;;;;4957547;28;20214;-86
2023/12/04 06:03:46;;;;;;;12.63;10.77;;;;;;;;;;4942058;28;20226;-86
2023/12/04 06:06:12;;;;;;;13.57;12.27;;;;;;;;;;4971866;28;20237;-86
2023/12/04 06:08:38;;;;;;;12.07;10.77;;;;;;;;;;4975758;28;20230;-85
2023/12/04 06:11:04;;;;;;;11.60;10.30;;;;;;;;;;4932220;28;20599;-87
2023/12/04 06:13:55;;;;;;;12.10;10.63;;;;;;;;;;4976613;28;20234;-86
2023/12/04 06:16:37;;;;;;;11.83;10.20;;;;;;;;;;4968272;28;20698;-86
2023/12/04 06:19:04;;;;;;;13.17;11.87;;;;;;;;;;4973339;28;20222;-86
2023/12/04 06:21:30;;;;;;;12.30;11.00;;;;;;;;;;4966686;28;20229;-87
2023/12/04 06:26:58;;;;;;;12.10;10.80;;;;;;;;;;4950485;28;20320;-87
2023/12/04 06:29:23;;;;;;;12.10;10.80;;;;;;;;;;4950505;28;20246;-87
2023/12/04 06:31:57;;;;;;;12.47;11.00;;;;;;;;;;4959358;28;20570;-87
2023/12/04 06:34:23;;;;;;;12.80;10.43;;;;;;;;;;4942827;28;20245;-88
2023/12/04 06:36:49;;;;;;;11.23;10.13;;;;;;;;;;4931677;29;20233;-84
2023/12/04 06:39:17;;;;;;;13.70;12.20;;;;;;;;;;4960237;28;20222;-88
2023/12/04 06:41:43;;;;;;;13.30;12.07;;;;;;;;;;4937553;28;20679;-85
2023/12/04 06:44:10;;;;;;;13.80;12.00;;;;;;;;;;4956079;28;20222;-86
2023/12/04 06:46:39;;;;;;;13.40;12.00;;;;;;;;;;4944643;28;20242;-87
2023/12/04 06:49:06;;;;;;;14.77;11.83;;;;;;;;;;4975795;28;20231;-90
2023/12/04 06:51:32;;;;;;;12.87;11.53;;;;;;;;;;4971287;28;20291;-87
2023/12/04 06:53:58;;;;;;;12.97;11.67;;;;;;;;;;4941230;28;20238;-87
2023/12/04 06:56:24;;;;;;;12.63;11.43;;;;;;;;;;4947397;28;20233;-89
2023/12/04 06:59:12;;;;;;;13.63;11.73;;;;;;;;;;4971276;28;20255;-88
2023/12/04 07:01:38;;;;;;;13.40;11.90;;;;;;;;;;4945081;28;20230;-86
2023/12/04 07:04:09;;;;;;;14.00;12.20;;;;;;;;;;4945787;28;20273;-88
2023/12/04 07:06:38;;;;;;;13.40;12.00;;;;;;;;;;4949199;28;20899;-86
2023/12/04 07:09:04;;;;;;;13.43;12.13;;;;;;;;;;4950863;28;20242;-87
2023/12/04 07:11:30;;;;;;;12.13;10.90;;;;;;;;;;4905782;28;20244;-89
2023/12/04 07:13:55;;;;;;;12.90;11.33;;;;;;;;;;4944813;28;20231;-87
2023/12/04 07:16:24;;;;;;;12.10;10.93;;;;;;;;;;4925427;28;20368;-87
2023/12/04 07:18:50;;;;;;;17.63;11.83;;;;;;;;;;4989612;28;20223;-88
2023/12/04 07:21:16;;;;;;;12.67;11.37;;;;;;;;;;4950778;28;20232;-88
2023/12/04 07:23:42;;;;;;;12.27;11.10;;;;;;;;;;4973929;28;20245;-88
2023/12/04 07:26:07;;;;;;;12.17;10.80;;;;;;;;;;4948270;28;20238;-89
2023/12/04 07:28:34;;;;;;;12.03;10.87;;;;;;;;;;4966850;28;20226;-89
2023/12/04 07:31:03;;;;;;;12.23;10.97;;;;;;;;;;4969078;28;20203;-87
2023/12/04 07:33:37;;;;;;;13.17;11.30;;;;;;;;;;4967438;28;20242;-88
2023/12/04 07:40:14;;;;;;;12.87;11.53;;;;;;;;;;4936710;28;20293;-87
2023/12/04 07:42:39;;;;;;;11.60;10.40;;;;;;;;;;4912622;29;20356;-88
2023/12/04 07:45:10;;;;;;;12.20;10.93;;;;;;;;;;4921785;28;20226;-88
2023/12/04 07:47:39;;;;;;;16.03;10.60;;;;;;;;;;4940350;28;20257;-87
2023/12/04 07:50:13;;;;;;;12.40;10.93;;;;;;;;;;4953339;28;20303;-86
2023/12/04 07:52:38;;;;;;;11.20;10.13;;;;;;;;;;4935562;28;20325;-88
2023/12/04 07:55:04;;;;;;;11.63;10.53;;;;;;;;;;4948120;28;20244;-89
2023/12/04 07:57:30;;;;;;;12.20;10.90;;;;;;;;;;4959353;28;20219;-87
2023/12/04 07:59:55;;;;;;;11.53;10.33;;;;;;;;;;4954855;28;20223;-87
2023/12/04 08:02:21;;;;;;;13.03;11.53;;;;;;;;;;4931388;28;20334;-89
2023/12/04 08:04:50;;;;;;;13.43;11.57;;;;;;;;;;4945506;28;20221;-88
2023/12/04 08:07:16;;;;;;;11.43;10.23;;;;;;;;;;4945109;28;20253;-88
2023/12/04 08:09:42;;;;;;;11.80;10.60;;;;;;;;;;4936362;28;20219;-88
2023/12/04 08:12:08;;;;;;;11.20;10.00;;;;;;;;;;4916173;28;20222;-87
2023/12/04 08:14:34;;;;;;;11.47;10.00;;;;;;;;;;4956174;28;20234;-87
2023/12/04 08:17:03;;;;;;;19.37;17.33;;;;;;;;;;4956995;28;20253;-85
2023/12/04 08:19:29;;;;;;;13.23;11.70;;;;;;;;;;4954398;28;20218;-89
2023/12/04 08:21:55;;;;;;;11.50;10.37;;;;;;;;;;4972065;28;20219;-86
2023/12/04 08:24:21;;;;;;;10.97;9.77;;;;;;;;;;4965562;28;20206;-87
2023/12/04 08:26:50;;;;;;;11.47;10.23;;;;;;;;;;4996355;28;20262;-87
2023/12/04 08:29:17;;;;;;;11.70;10.50;;;;;;;;;;4973967;28;20241;-90
2023/12/04 08:31:44;;;;;;;12.13;10.67;;;;;;;;;;4964001;28;20214;-90
2023/12/04 08:34:11;;;;;;;11.10;9.90;;;;;;;;;;4986663;28;20254;-88
2023/12/04 08:36:38;;;;;;;10.67;9.57;;;;;;;;;;4976201;28;20239;-88
2023/12/04 08:39:04;;;;;;;11.90;10.77;;;;;;;;;;4932370;28;20238;-89
2023/12/04 08:41:30;;;;;;;13.67;11.63;;;;;;;;;;4949176;28;20226;-86
2023/12/04 08:43:56;;;;;;;12.43;11.13;;;;;;;;;;4948700;28;20222;-86
2023/12/04 08:46:21;;;;;;;14.83;13.43;;;;;;;;;;4971165;28;20219;-87
2023/12/04 08:48:51;;;;;;;12.43;11.13;;;;;;;;;;4960809;28;20225;-85
2023/12/04 08:51:21;;;;;;;13.07;11.70;;;;;;;;;;4953707;28;20237;-88
2023/12/04 08:53:47;;;;;;;11.40;10.33;;;;;;;;;;4972822;28;20239;-86
2023/12/04 08:56:13;;;;;;;11.97;10.23;;;;;;;;;;4966806;28;20238;-87
2023/12/04 08:58:39;;;;;;;15.33;12.30;;;;;;;;;;4940952;28;20221;-89
2023/12/04 09:01:04;;;;;;;16.40;14.63;;;;;;;;;;4946967;28;20244;-87
2023/12/04 09:03:33;;;;;;;11.57;10.13;;;;;;;;;;4930407;28;20281;-86
2023/12/04 09:06:00;;;;;;;12.77;10.17;;;;;;;;;;4944662;28;20237;-87
2023/12/04 09:08:32;;;;;;;14.00;10.33;;;;;;;;;;4959379;28;20222;-86
2023/12/04 09:11:08;;;;;;;10.67;9.70;;;;;;;;;;4947028;28;20222;-86
2023/12/04 09:13:34;;;;;;;10.57;9.47;;;;;;;;;;4948191;28;20229;-87
2023/12/04 09:16:00;;;;;;;10.97;9.30;;;;;;;;;;4936129;28;20253;-86
2023/12/04 09:18:26;;;;;;;11.87;9.83;;;;;;;;;;4959255;28;20221;-89
2023/12/04 09:20:51;;;;;;;10.03;9.07;;;;;;;;;;4955515;28;20214;-88
2023/12/04 09:23:17;;;;;;;10.30;9.20;;;;;;;;;;4943603;28;20590;-88
2023/12/04 09:25:43;;;;;;;9.77;8.77;;;;;;;;;;4968539;28;20704;-88
2023/12/04 09:28:08;;;;;;;11.00;8.97;;;;;;;;;;4932852;28;20229;-87
2023/12/04 09:30:35;;;;;;;9.80;8.83;;;;;;;;;;4945181;28;20233;-87
2023/12/04 09:33:02;;;;;;;10.57;9.47;;;;;;;;;;4940112;28;21083;-88
2023/12/04 09:35:27;;;;;;;10.17;9.10;;;;;;;;;;4963731;28;20305;-87
2023/12/04 09:37:54;;;;;;;10.03;8.53;;;;;;;;;;4988984;28;20308;-87
2023/12/04 09:40:19;;;;;;;9.90;8.90;;;;;;;;;;4964457;28;20392;-87
2023/12/04 09:42:50;;;;;;;9.67;8.67;;;;;;;;;;4941639;28;20716;-86
2023/12/04 09:45:15;;;;;;;8.63;7.83;;;;;;;;;;4954749;28;20218;-87
2023/12/04 09:47:42;;;;;;;10.10;8.50;;;;;;;;;;4979373;28;20253;-88
2023/12/04 09:50:08;;;;;;;9.37;8.37;;;;;;;;;;4962489;28;20219;-88
2023/12/04 09:52:35;;;;;;;9.20;8.40;;;;;;;;;;4940676;28;20211;-87
2023/12/04 09:55:03;;;;;;;10.17;7.77;;;;;;;;;;4973756;28;20242;-88
2023/12/04 09:57:28;;;;;;;8.97;8.17;;;;;;;;;;4981632;28;20729;-87
2023/12/04 09:59:54;;;;;;;8.80;8.00;;;;;;;;;;4958482;28;20269;-88
2023/12/04 10:02:24;;;;;;;9.60;8.13;;;;;;;;;;4972690;28;20286;-87
2023/12/04 10:04:50;;;;;;;8.43;7.57;;;;;;;;;;4958329;28;20233;-85
2023/12/04 10:07:16;;;;;;;10.23;8.77;;;;;;;;;;4968695;28;20223;-89
2023/12/04 10:09:41;;;;;;;8.90;8.10;;;;;;;;;;4978144;28;20222;-88
2023/12/04 10:12:07;;;;;;;9.00;7.93;;;;;;;;;;4956729;28;20380;-88
2023/12/04 10:14:32;;;;;;;9.33;8.43;;;;;;;;;;4937853;28;20233;-86
2023/12/04 10:16:59;;;;;;;9.93;8.33;;;;;;;;;;4960117;28;20230;-87
2023/12/04 10:19:29;;;;;;;9.03;8.13;;;;;;;;;;4938776;28;20222;-87
2023/12/04 10:21:59;;;;;;;9.00;7.83;;;;;;;;;;4942637;28;20214;-88
2023/12/04 10:24:39;;;;;;;9.53;7.23;;;;;;;;;;4992105;28;20222;-84
2023/12/04 10:27:08;;;;;;;8.70;7.80;;;;;;;;;;4942246;28;20222;-88
2023/12/04 10:29:52;;;;;;;8.17;7.37;;;;;;;;;;4949871;28;20218;-88
2023/12/04 10:32:23;;;;;;;9.43;8.40;;;;;;;;;;4955118;28;20282;-86
2023/12/04 10:34:55;;;;;;;8.80;7.90;;;;;;;;;;4972392;28;20257;-89
2023/12/04 10:37:20;;;;;;;8.40;7.60;;;;;;;;;;4972946;28;20244;-87
2023/12/04 10:39:47;;;;;;;8.83;7.93;;;;;;;;;;4974477;28;20270;-83
2023/12/04 10:42:25;;;;;;;8.87;7.90;;;;;;;;;;4986718;28;20262;-85
2023/12/04 10:44:51;;;;;;;9.77;7.63;;;;;;;;;;4980048;28;20249;-86
2023/12/04 10:47:21;;;;;;;8.93;8.00;;;;;;;;;;4992372;28;20210;-85
2023/12/04 10:49:48;;;;;;;7.27;6.63;;;;;;;;;;4978652;28;20222;-86
2023/12/04 10:52:14;;;;;;;8.50;7.60;;;;;;;;;;4945242;28;20222;-88
2023/12/04 10:54:42;;;;;;;8.53;7.73;;;;;;;;;;4976433;28;20289;-85
2023/12/04 10:57:07;;;;;;;8.57;7.77;;;;;;;;;;4971141;28;20227;-88
2023/12/04 10:59:36;;;;;;;8.50;7.70;;;;;;;;;;4975784;28;20215;-86
2023/12/04 11:02:08;;;;;;;9.13;7.80;;;;;;;;;;4961018;28;20236;-87
2023/12/04 11:04:38;;;;;;;8.20;7.40;;;;;;;;;;4975192;28;20245;-85
2023/12/04 11:07:08;;;;;;;8.50;7.67;;;;;;;;;;4966201;28;20254;-86
2023/12/04 11:09:35;;;;;;;8.87;8.03;;;;;;;;;;4973172;28;20223;-85
2023/12/04 11:12:07;;;;;;;8.63;7.73;;;;;;;;;;4952302;29;20281;-85
2023/12/04 11:14:42;;;;;;;9.77;7.73;;;;;;;;;;4960252;28;20273;-85
2023/12/04 11:17:11;;;;;;;9.67;7.03;;;;;;;;;;4956746;28;20444;-86
2023/12/04 11:19:54;;;;;;;9.70;8.13;;;;;;;;;;4957880;28;20226;-87
2023/12/04 11:22:20;;;;;;;8.07;7.27;;;;;;;;;;4954986;28;20270;-85
2023/12/04 11:24:48;;;;;;;8.33;7.53;;;;;;;;;;4954141;28;20226;-86
2023/12/04 11:27:15;;;;;;;10.43;9.47;;;;;;;;;;4954199;28;20778;-85
2023/12/04 11:29:41;;;;;;;11.00;10.00;;;;;;;;;;4956784;29;20227;-86
2023/12/04 11:32:07;;;;;;;9.73;8.83;;;;;;;;;;4967798;28;20302;-85
2023/12/04 11:34:32;;;;;;;26.27;23.57;;;;;;;;;;4956894;28;20222;-86
2023/12/04 11:36:58;;;;;;;10.70;9.70;;;;;;;;;;4948085;28;20219;-85
2023/12/04 11:39:25;;;;;;;8.67;7.73;;;;;;;;;;4962189;28;20325;-85
2023/12/04 11:41:51;;;;;;;7.77;6.97;;;;;;;;;;4960142;28;20222;-85
2023/12/04 11:44:17;;;;;;;9.47;8.43;;;;;;;;;;4970335;28;20249;-85
2023/12/04 11:46:55;;;;;;;8.43;7.70;;;;;;;;;;4958846;28;20214;-85
2023/12/04 11:49:30;;;;;;;8.50;7.63;;;;;;;;;;4983942;28;20226;-85
2023/12/04 11:51:59;;;;;;;8.70;7.83;;;;;;;;;;4968822;28;20212;-85
2023/12/04 11:54:26;;;;;;;9.20;8.30;;;;;;;;;;4939700;28;20290;-86
2023/12/04 11:57:24;;;;;;;8.23;7.43;;;;;;;;;;4968078;28;20221;-85
2023/12/04 11:59:50;;;;;;;8.30;7.60;;;;;;;;;;4952089;28;20262;-86
2023/12/04 12:02:18;;;;;;;6.30;5.80;;;;;;;;;;4942757;28;20222;-86
2023/12/04 12:04:45;;;;;;;7.37;6.53;;;;;;;;;;4945416;29;20214;-86
2023/12/04 12:07:11;;;;;;;7.37;6.23;;;;;;;;;;4974232;28;20254;-86
2023/12/04 12:09:37;;;;;;;6.70;5.80;;;;;;;;;;4994786;28;20214;-86
2023/12/04 12:12:06;;;;;;;6.20;5.60;;;;;;;;;;4995420;28;20237;-85
2023/12/04 12:14:32;;;;;;;7.07;6.00;;;;;;;;;;4960542;28;20222;-85
2023/12/04 12:16:59;;;;;;;6.97;6.10;;;;;;;;;;4959106;28;20232;-86
2023/12/04 12:19:24;;;;;;;6.63;5.90;;;;;;;;;;4995247;28;20234;-85
2023/12/04 12:21:51;;;;;;;7.97;6.73;;;;;;;;;;4973714;28;20290;-86
2023/12/04 12:24:18;;;;;;;6.63;5.93;;;;;;;;;;4951331;28;20245;-85
2023/12/04 12:26:44;;;;;;;6.90;6.30;;;;;;;;;;4974864;28;20286;-85
2023/12/04 12:29:10;;;;;;;6.63;6.03;;;;;;;;;;4956599;28;20222;-85
2023/12/04 12:31:38;;;;;;;6.97;5.90;;;;;;;;;;4973634;28;20225;-86
2023/12/04 12:34:04;;;;;;;7.43;6.27;;;;;;;;;;4972614;28;20346;-86
2023/12/04 12:36:32;;;;;;;6.17;5.57;;;;;;;;;;4945404;28;20229;-85
2023/12/04 12:39:03;;;;;;;6.57;5.97;;;;;;;;;;4972642;28;20215;-87
2023/12/04 12:41:29;;;;;;;6.97;6.27;;;;;;;;;;4974965;28;20218;-85
2023/12/04 12:43:56;;;;;;;6.83;6.23;;;;;;;;;;4959087;28;20225;-85
2023/12/04 12:46:21;;;;;;;5.73;5.23;;;;;;;;;;4973410;28;20237;-86
2023/12/04 12:48:49;;;;;;;6.00;5.50;;;;;;;;;;4962327;28;20230;-85
2023/12/04 12:51:17;;;;;;;5.70;5.30;;;;;;;;;;4954567;28;20223;-86
2023/12/04 12:53:49;;;;;;;7.17;5.70;;;;;;;;;;4938333;29;20326;-86
2023/12/04 12:56:17;;;;;;;6.23;5.53;;;;;;;;;;4938984;28;20229;-86
2023/12/04 12:58:42;;;;;;;6.90;5.70;;;;;;;;;;4939691;29;20222;-87
2023/12/04 13:01:11;;;;;;;6.30;5.30;;;;;;;;;;4938970;28;20278;-87
2023/12/04 13:03:37;;;;;;;6.23;5.63;;;;;;;;;;4953018;28;20234;-86
2023/12/04 13:06:04;;;;;;;6.73;6.03;;;;;;;;;;4977877;28;20261;-86
2023/12/04 13:08:29;;;;;;;6.17;5.57;;;;;;;;;;4973630;28;20222;-87
2023/12/04 13:10:55;;;;;;;6.40;5.80;;;;;;;;;;4951054;28;20237;-87
2023/12/04 13:13:21;;;;;;;7.37;6.03;;;;;;;;;;4933682;28;20222;-87
2023/12/04 13:15:47;;;;;;;7.80;6.20;;;;;;;;;;4949890;28;20572;-86
2023/12/04 13:18:12;;;;;;;7.30;6.60;;;;;;;;;;4981238;28;20525;-88
2023/12/04 13:20:38;;;;;;;7.20;6.40;;;;;;;;;;4966697;28;20285;-87
2023/12/04 13:23:04;;;;;;;6.57;6.00;;;;;;;;;;4949242;28;20214;-87
2023/12/04 13:25:29;;;;;;;7.30;6.60;;;;;;;;;;4950875;28;20759;-87
2023/12/04 13:27:56;;;;;;;6.30;5.67;;;;;;;;;;4950822;28;20228;-86
2023/12/04 13:30:22;;;;;;;6.77;6.17;;;;;;;;;;4956685;28;20230;-87
2023/12/04 13:32:50;;;;;;;7.13;6.53;;;;;;;;;;4928007;28;20764;-88
2023/12/04 13:35:18;;;;;;;7.03;6.43;;;;;;;;;;4962415;28;20712;-86
2023/12/04 13:37:54;;;;;;;6.93;6.30;;;;;;;;;;4973217;28;20253;-86
2023/12/04 13:40:20;;;;;;;7.27;6.57;;;;;;;;;;4952617;28;20268;-86
2023/12/04 13:45:31;;;;;;;7.40;6.73;;;;;;;;;;4959150;28;20241;-88
2023/12/04 13:47:57;;;;;;;7.97;7.27;;;;;;;;;;4975959;28;20222;-88
2023/12/04 13:50:23;;;;;;;7.77;7.07;;;;;;;;;;4978556;28;20764;-86
2023/12/04 13:52:56;;;;;;;8.07;7.27;;;;;;;;;;4964289;28;20346;-87
2023/12/04 13:55:42;;;;;;;7.90;7.10;;;;;;;;;;4948788;28;20219;-87
2023/12/04 13:58:36;;;;;;;8.23;7.43;;;;;;;;;;4953141;28;20282;-87
2023/12/04 14:01:00;;;;;;;7.97;7.17;;;;;;;;;;4968846;28;20271;-87
2023/12/04 14:03:28;;;;;;;7.83;7.00;;;;;;;;;;4965377;28;20276;-88
2023/12/04 14:05:54;;;;;;;9.53;8.10;;;;;;;;;;4965616;28;20226;-87
2023/12/04 14:08:20;;;;;;;8.77;7.87;;;;;;;;;;4979475;28;20271;-85
2023/12/04 14:10:46;;;;;;;7.63;6.93;;;;;;;;;;4983752;28;20222;-86
2023/12/04 14:13:16;;;;;;;9.47;8.07;;;;;;;;;;4944343;28;20225;-87
2023/12/04 14:15:43;;;;;;;9.13;7.83;;;;;;;;;;4977276;28;20696;-87
2023/12/04 14:18:09;;;;;;;8.30;7.50;;;;;;;;;;4947455;28;20276;-87
2023/12/04 14:20:35;;;;;;;8.73;7.93;;;;;;;;;;4944853;28;20229;-86
2023/12/04 14:23:00;;;;;;;8.87;8.03;;;;;;;;;;4962004;28;20702;-86
2023/12/04 14:25:29;;;;;;;9.57;8.67;;;;;;;;;;4963457;28;20222;-87
2023/12/04 14:27:55;;;;;;;8.97;8.07;;;;;;;;;;4928326;28;20230;-85
2023/12/04 14:30:20;;;;;;;9.37;8.40;;;;;;;;;;4969042;28;20293;-87
2023/12/04 14:32:46;;;;;;;8.67;7.87;;;;;;;;;;4953520;28;20225;-88
2023/12/04 14:35:13;;;;;;;10.00;9.00;;;;;;;;;;4929468;28;20218;-86
2023/12/04 14:37:39;;;;;;;9.47;8.53;;;;;;;;;;4948408;28;20214;-86
2023/12/04 14:40:05;;;;;;;9.67;8.77;;;;;;;;;;4929229;28;20290;-88
2023/12/04 14:42:31;;;;;;;9.43;8.50;;;;;;;;;;4960204;28;20218;-88